KPNC/PNC METAR and TAF weather

Enter ICAO airport designator
Station Type Date Time Source
KPNC METAR 2024/06/16 08:53 UTC NOAA

KPNC 160853Z AUTO 18008KT 150V210 10SM -RA CLR 26/19 A2981 RMK AO2 SLP078 P0000 60000 T02560189 55009


Station Type Date Time Source
KPNC Decoded METAR 2024/06/16 08:53 UTC NOAA

PONCA CITY MUNICIPAL AIRPORT, OK, United States (KPNC) 36-44N 97-06W 308M
Jun 16, 2024 - 04:53 AM EDT / 2024.06.16 0853 UTC
Wind: from the S (180 degrees) at 9 MPH (8 KT) (direction variable):0
Visibility: 10 mile(s):0
Sky conditions: clear
Weather: light rain
Precipitation last hour: A trace
Temperature: 78.1 F (25.6 C)
Dew Point: 66.0 F (18.9 C)
Relative Humidity: 66%
Pressure (altimeter): 29.81 in. Hg (1009 hPa)
Pressure tendency: 0.03 inches (0.9 hPa) lower than three hours ago
ob: KPNC 160853Z AUTO 18008KT 150V210 10SM -RA CLR 26/19 A2981 RMK AO2 SLP078 P0000 60000 T02560189 55009
cycle: 9

Station Type Date Time Source
KPNC TAF 2024/06/16 06:22 UTC NOAA